createdAt,value
2019-02-20T00:00:23.029Z,0.00
2019-02-20T00:01:22.959Z,0.00
2019-02-20T00:02:22.955Z,0.00
2019-02-20T00:03:22.933Z,0.00
2019-02-20T00:04:22.930Z,0.00
2019-02-20T00:05:22.942Z,0.00
2019-02-20T00:06:22.908Z,0.00
2019-02-20T00:07:22.895Z,0.00
2019-02-20T00:08:22.909Z,0.00
2019-02-20T00:09:25.069Z,0.00
2019-02-20T00:10:22.857Z,0.00
2019-02-20T00:11:22.888Z,0.00
2019-02-20T00:12:22.834Z,0.00
2019-02-20T00:13:22.854Z,0.00
2019-02-20T00:14:22.842Z,0.00
2019-02-20T00:15:22.823Z,0.00
2019-02-20T00:16:22.793Z,0.00
2019-02-20T00:17:22.784Z,0.00
2019-02-20T00:18:22.772Z,0.00
2019-02-20T00:19:22.798Z,0.00
2019-02-20T00:20:22.750Z,0.00
2019-02-20T00:21:22.740Z,0.00
2019-02-20T00:22:22.732Z,0.00
2019-02-20T00:23:22.731Z,0.00
2019-02-20T00:24:22.735Z,0.00
2019-02-20T00:25:22.723Z,0.00
2019-02-20T00:26:22.713Z,0.00
2019-02-20T00:27:22.678Z,0.00
2019-02-20T00:28:22.670Z,0.00
2019-02-20T00:29:22.689Z,0.00
2019-02-20T00:30:22.640Z,0.00
2019-02-20T00:31:22.659Z,0.00
2019-02-20T00:32:22.621Z,0.00
2019-02-20T00:33:22.634Z,0.00
2019-02-20T00:34:22.615Z,0.00
2019-02-20T00:35:22.587Z,0.00
2019-02-20T00:36:22.576Z,0.00
2019-02-20T00:37:22.565Z,0.00
2019-02-20T00:38:22.561Z,0.00
2019-02-20T00:39:22.545Z,0.00
2019-02-20T00:40:22.562Z,0.00
2019-02-20T00:41:22.532Z,0.00
2019-02-20T00:42:22.505Z,0.00
2019-02-20T00:43:22.507Z,0.00
2019-02-20T00:44:22.495Z,0.00
2019-02-20T00:45:22.513Z,0.00
2019-02-20T00:46:22.467Z,0.00
2019-02-20T00:47:22.451Z,0.00
2019-02-20T00:48:22.441Z,0.00
2019-02-20T00:49:22.460Z,0.00
2019-02-20T00:50:22.421Z,0.00
2019-02-20T00:51:22.435Z,0.00
2019-02-20T00:52:22.393Z,0.00
2019-02-20T00:53:22.385Z,0.00
2019-02-20T00:54:22.415Z,0.00
2019-02-20T00:55:22.359Z,0.00
2019-02-20T00:56:22.356Z,0.00
2019-02-20T00:57:22.345Z,0.00
2019-02-20T00:58:22.330Z,0.00
2019-02-20T00:59:22.356Z,0.00
2019-02-20T01:00:22.310Z,0.00
2019-02-20T01:01:22.294Z,0.00
2019-02-20T01:02:22.296Z,0.00
2019-02-20T01:03:22.296Z,0.00
2019-02-20T01:04:22.291Z,0.00
2019-02-20T01:05:22.263Z,0.00
2019-02-20T01:06:22.250Z,0.00
2019-02-20T01:07:22.257Z,0.00
2019-02-20T01:08:22.252Z,0.00
2019-02-20T01:09:22.206Z,0.00
2019-02-20T01:10:22.235Z,0.00
2019-02-20T01:11:22.185Z,0.00
2019-02-20T01:12:22.172Z,0.00
2019-02-20T01:13:22.181Z,0.00
2019-02-20T01:14:22.164Z,0.00
2019-02-20T01:15:22.179Z,0.00
2019-02-20T01:16:22.133Z,0.00
2019-02-20T01:17:22.147Z,0.00
2019-02-20T01:18:22.111Z,0.00
2019-02-20T01:19:22.107Z,0.00
2019-02-20T01:20:22.092Z,0.00
2019-02-20T01:21:22.078Z,0.00
2019-02-20T01:22:22.109Z,0.00
2019-02-20T01:23:22.052Z,0.00
2019-02-20T01:24:22.054Z,0.00
2019-02-20T01:25:22.033Z,0.00
2019-02-20T01:26:22.047Z,0.00
2019-02-20T01:27:22.019Z,0.00
2019-02-20T01:28:22.024Z,0.00
2019-02-20T01:29:21.992Z,0.00
2019-02-20T01:30:21.974Z,0.00
2019-02-20T01:31:21.963Z,0.00
2019-02-20T01:32:21.984Z,0.00
2019-02-20T01:33:21.944Z,0.00
2019-02-20T01:34:21.932Z,0.00
2019-02-20T01:35:21.948Z,0.00
2019-02-20T01:36:21.935Z,0.00
2019-02-20T01:37:21.906Z,0.00
2019-02-20T01:38:21.887Z,0.00
2019-02-20T01:39:21.899Z,0.00
2019-02-20T01:40:21.870Z,0.00
2019-02-20T01:41:21.853Z,0.00
2019-02-20T01:42:21.850Z,0.00
2019-02-20T01:43:21.861Z,0.00
2019-02-20T01:44:21.818Z,0.00
2019-02-20T01:45:21.807Z,0.00
2019-02-20T01:46:21.804Z,0.00
2019-02-20T01:47:21.789Z,0.00
2019-02-20T01:48:21.804Z,0.00
2019-02-20T01:49:21.771Z,0.00
2019-02-20T01:50:21.761Z,0.00
2019-02-20T01:51:21.747Z,0.00
2019-02-20T01:52:21.737Z,0.00
2019-02-20T01:53:21.743Z,0.00
2019-02-20T01:54:21.743Z,0.00
2019-02-20T01:55:21.718Z,0.00
2019-02-20T01:56:21.694Z,0.00
2019-02-20T01:57:21.686Z,0.00
2019-02-20T01:58:21.739Z,0.00
2019-02-20T01:59:21.669Z,0.00
2019-02-20T02:00:21.658Z,0.00
2019-02-20T02:01:21.661Z,0.00
2019-02-20T02:02:21.635Z,0.00
2019-02-20T02:03:21.649Z,0.00
2019-02-20T02:04:21.598Z,0.00
2019-02-20T02:05:21.591Z,0.00
2019-02-20T02:06:21.577Z,0.00
2019-02-20T02:07:21.576Z,0.00
2019-02-20T02:08:21.585Z,0.00
2019-02-20T02:09:21.551Z,0.00
2019-02-20T02:10:21.556Z,0.00
2019-02-20T02:11:21.521Z,0.00
2019-02-20T02:12:21.516Z,0.00
2019-02-20T02:13:21.502Z,0.00
2019-02-20T02:14:21.525Z,0.00
2019-02-20T02:15:21.475Z,0.00
2019-02-20T02:16:21.472Z,0.00
2019-02-20T02:17:21.471Z,0.00
2019-02-20T02:18:21.463Z,0.00
2019-02-20T02:19:21.483Z,0.00
2019-02-20T02:20:21.431Z,0.00
2019-02-20T02:21:21.410Z,0.00
2019-02-20T02:22:21.403Z,0.00
2019-02-20T02:23:21.390Z,0.00
2019-02-20T02:24:21.377Z,0.00
2019-02-20T02:25:21.401Z,0.00
2019-02-20T02:26:21.389Z,0.00
2019-02-20T02:27:21.396Z,0.00
2019-02-20T02:28:21.337Z,0.00
2019-02-20T02:29:21.331Z,0.00
2019-02-20T02:30:21.322Z,0.00
2019-02-20T02:31:21.338Z,0.00
2019-02-20T02:32:21.296Z,0.00
2019-02-20T02:33:21.277Z,0.00
2019-02-20T02:34:21.272Z,0.00
2019-02-20T02:35:21.257Z,0.00
2019-02-20T02:36:21.294Z,0.00
2019-02-20T02:37:21.235Z,0.00
2019-02-20T02:38:21.225Z,0.00
2019-02-20T02:39:21.216Z,0.00
2019-02-20T02:40:21.209Z,0.00
2019-02-20T02:41:21.225Z,0.00
2019-02-20T02:42:21.188Z,0.00
2019-02-20T02:43:21.169Z,0.00
2019-02-20T02:44:21.181Z,0.00
2019-02-20T02:45:21.147Z,0.00
2019-02-20T02:46:21.145Z,0.00
2019-02-20T02:47:21.139Z,0.00
2019-02-20T02:48:21.141Z,0.00
2019-02-20T02:49:21.114Z,0.00
2019-02-20T02:50:21.094Z,0.00
2019-02-20T02:51:21.081Z,0.00
2019-02-20T02:52:21.109Z,0.00
2019-02-20T02:53:30.408Z,0.00
2019-02-20T02:54:22.047Z,0.00
2019-02-20T02:55:21.053Z,0.00
2019-02-20T02:56:21.029Z,0.00
2019-02-20T02:57:21.038Z,0.00
2019-02-20T02:58:21.042Z,0.00
2019-02-20T02:59:20.996Z,0.00
2019-02-20T03:00:21.006Z,0.00
2019-02-20T03:01:20.973Z,0.00
2019-02-20T03:02:20.966Z,0.00
2019-02-20T03:03:21.069Z,0.00
2019-02-20T03:04:20.971Z,0.00
2019-02-20T03:05:20.924Z,0.00
2019-02-20T03:06:20.915Z,0.00
2019-02-20T03:07:20.904Z,0.00
2019-02-20T03:08:20.926Z,0.00
2019-02-20T03:09:20.883Z,0.00
2019-02-20T03:10:20.874Z,0.00
2019-02-20T03:11:20.863Z,0.00
2019-02-20T03:12:20.861Z,0.00
2019-02-20T03:13:20.880Z,0.00
2019-02-20T03:14:20.827Z,0.00
2019-02-20T03:15:20.815Z,0.00
2019-02-20T03:16:20.807Z,0.00
2019-02-20T03:17:20.799Z,0.00
2019-02-20T03:18:20.807Z,0.00
2019-02-20T03:19:20.782Z,0.00
2019-02-20T03:20:20.783Z,0.00
2019-02-20T03:21:20.748Z,0.00
2019-02-20T03:22:20.744Z,0.00
2019-02-20T03:23:20.727Z,0.00
2019-02-20T03:24:20.719Z,0.00
2019-02-20T03:25:20.722Z,0.00
2019-02-20T03:26:20.694Z,0.00
2019-02-20T03:27:20.687Z,0.00
2019-02-20T03:28:20.696Z,0.00
2019-02-20T03:29:20.676Z,0.00
2019-02-20T03:30:20.688Z,0.00
2019-02-20T03:31:20.644Z,0.00
2019-02-20T03:32:20.698Z,0.00
2019-02-20T03:33:20.621Z,0.00
2019-02-20T03:34:20.609Z,0.00
2019-02-20T03:35:20.624Z,0.00
2019-02-20T03:36:20.604Z,0.00
2019-02-20T03:37:20.588Z,0.00
2019-02-20T03:38:30.044Z,0.00
2019-02-20T03:39:21.597Z,0.00
2019-02-20T03:40:20.556Z,0.00
2019-02-20T03:41:20.534Z,0.00
2019-02-20T03:42:20.573Z,0.00
2019-02-20T03:43:20.522Z,0.00
2019-02-20T03:44:20.495Z,0.00
2019-02-20T03:45:20.512Z,0.00
2019-02-20T03:46:20.479Z,0.00
2019-02-20T03:47:20.466Z,0.00
2019-02-20T03:48:20.458Z,0.00
2019-02-20T03:49:20.455Z,0.00
2019-02-20T03:50:20.463Z,0.00
2019-02-20T03:51:20.419Z,0.00
2019-02-20T03:52:20.409Z,0.00
2019-02-20T03:53:20.400Z,0.00
2019-02-20T03:54:20.403Z,0.00
2019-02-20T03:55:20.414Z,0.00
2019-02-20T03:56:20.364Z,0.00
2019-02-20T03:57:20.363Z,0.00
2019-02-20T03:58:20.358Z,0.00
2019-02-20T03:59:20.349Z,0.00
2019-02-20T04:00:20.352Z,0.00
2019-02-20T04:01:20.316Z,0.00
2019-02-20T04:02:20.301Z,0.00
2019-02-20T04:03:20.284Z,0.00
2019-02-20T04:04:20.274Z,0.00
2019-02-20T04:05:20.296Z,0.00
2019-02-20T04:06:20.254Z,0.00
2019-02-20T04:07:20.257Z,0.00
2019-02-20T04:08:20.257Z,0.00
2019-02-20T04:09:20.220Z,0.00
2019-02-20T04:10:20.230Z,0.00
2019-02-20T04:11:20.196Z,0.00
2019-02-20T04:12:20.214Z,0.00
2019-02-20T04:13:20.192Z,0.00
2019-02-20T04:14:20.162Z,0.00
2019-02-20T04:15:20.161Z,0.00
2019-02-20T04:16:20.166Z,0.00
2019-02-20T04:17:20.129Z,0.00
2019-02-20T04:18:20.120Z,0.00
2019-02-20T04:19:20.129Z,0.00
2019-02-20T04:20:20.121Z,0.00
2019-02-20T04:21:20.108Z,0.00
2019-02-20T04:22:20.082Z,0.00
2019-02-20T04:23:20.068Z,0.00
2019-02-20T04:24:20.061Z,0.00
2019-02-20T04:25:20.047Z,0.00
2019-02-20T04:26:20.069Z,0.00
2019-02-20T04:27:20.027Z,0.00
2019-02-20T04:28:20.023Z,0.00
2019-02-20T04:29:20.002Z,0.00
2019-02-20T04:30:20.014Z,0.00
2019-02-20T04:31:19.974Z,0.00
2019-02-20T04:32:19.990Z,0.00
2019-02-20T04:33:19.959Z,0.00
2019-02-20T04:34:19.950Z,0.00
2019-02-20T04:35:19.933Z,0.00
2019-02-20T04:36:19.939Z,0.00
2019-02-20T04:37:19.911Z,0.00
2019-02-20T04:38:19.901Z,0.00
2019-02-20T04:39:19.893Z,0.00
2019-02-20T04:40:19.903Z,0.00
2019-02-20T04:41:19.888Z,0.00
2019-02-20T04:42:19.856Z,0.00
2019-02-20T04:43:19.857Z,0.00
2019-02-20T04:44:19.839Z,0.00
2019-02-20T04:45:19.823Z,0.00
2019-02-20T04:46:19.837Z,0.00
2019-02-20T04:47:19.805Z,0.00
2019-02-20T04:48:19.791Z,0.00
2019-02-20T04:49:19.803Z,0.00
2019-02-20T04:50:19.774Z,0.00
2019-02-20T04:51:19.780Z,0.00
2019-02-20T04:52:19.742Z,0.00
2019-02-20T04:53:19.762Z,0.00
2019-02-20T04:54:19.724Z,0.00
2019-02-20T04:55:19.716Z,0.00
2019-02-20T04:56:19.741Z,0.00
2019-02-20T04:57:19.686Z,0.00
2019-02-20T04:58:19.675Z,0.00
2019-02-20T04:59:19.668Z,0.00
2019-02-20T05:00:19.662Z,0.00
2019-02-20T05:01:19.674Z,0.00
2019-02-20T05:02:19.636Z,0.00
2019-02-20T05:03:19.629Z,0.00
2019-02-20T05:04:19.650Z,0.00
2019-02-20T05:05:19.610Z,0.00
2019-02-20T05:06:19.612Z,0.00
2019-02-20T05:07:19.610Z,0.00
2019-02-20T05:08:19.593Z,0.00
2019-02-20T05:09:19.563Z,0.00
2019-02-20T05:10:19.568Z,0.00
2019-02-20T05:11:19.569Z,0.00
2019-02-20T05:12:19.522Z,0.00
2019-02-20T05:13:19.514Z,0.00
2019-02-20T05:14:19.529Z,0.00
2019-02-20T05:15:19.488Z,0.00
2019-02-20T05:16:19.497Z,0.00
2019-02-20T05:17:19.473Z,0.00
2019-02-20T05:18:19.456Z,0.00
2019-02-20T05:19:19.470Z,0.00
2019-02-20T05:20:19.444Z,0.00
2019-02-20T05:21:19.421Z,0.00
2019-02-20T05:22:19.440Z,0.00
2019-02-20T05:23:19.417Z,0.00
2019-02-20T05:24:24.644Z,0.00
2019-02-20T05:25:20.382Z,0.00
2019-02-20T05:26:19.381Z,0.00
2019-02-20T05:27:19.375Z,0.00
2019-02-20T05:28:19.345Z,0.00
2019-02-20T05:29:19.338Z,0.00
2019-02-20T05:30:19.361Z,0.00
2019-02-20T05:31:19.311Z,0.00
2019-02-20T05:32:19.327Z,0.00
2019-02-20T05:33:19.292Z,0.00
2019-02-20T05:34:19.283Z,0.00
2019-02-20T05:35:19.275Z,0.00
2019-02-20T05:36:19.277Z,0.00
2019-02-20T05:37:19.243Z,0.00
2019-02-20T05:38:19.238Z,0.00
2019-02-20T05:39:19.243Z,0.00
2019-02-20T05:40:19.217Z,0.00
2019-02-20T05:41:19.199Z,0.00
2019-02-20T05:42:19.213Z,0.00
2019-02-20T05:43:19.179Z,0.00
2019-02-20T05:44:19.174Z,0.00
2019-02-20T05:45:19.159Z,0.00
2019-02-20T05:46:19.174Z,0.00
2019-02-20T05:47:19.133Z,0.00
2019-02-20T05:48:19.129Z,0.00
2019-02-20T05:49:19.140Z,0.00
2019-02-20T05:50:19.107Z,0.00
2019-02-20T05:51:19.095Z,0.00
2019-02-20T05:52:19.087Z,0.00
2019-02-20T05:53:19.088Z,0.00
2019-02-20T05:54:19.088Z,0.00
2019-02-20T05:55:19.046Z,0.00
2019-02-20T05:56:19.042Z,0.00
2019-02-20T05:57:19.026Z,0.00
2019-02-20T05:58:19.014Z,0.00
2019-02-20T05:59:19.027Z,0.00
2019-02-20T06:00:19.021Z,4.00
2019-02-20T06:01:18.980Z,4.00
2019-02-20T06:02:18.983Z,0.00
2019-02-20T06:03:19.003Z,4.00
2019-02-20T06:04:18.947Z,4.00
2019-02-20T06:05:18.942Z,4.00
2019-02-20T06:06:18.934Z,4.00
2019-02-20T06:07:18.919Z,8.00
2019-02-20T06:08:18.926Z,4.00
2019-02-20T06:09:18.927Z,4.00
2019-02-20T06:10:18.890Z,8.00
2019-02-20T06:11:18.871Z,12.00
2019-02-20T06:12:18.883Z,12.00
2019-02-20T06:13:18.859Z,16.00
2019-02-20T06:14:18.834Z,12.00
2019-02-20T06:15:18.848Z,16.00
2019-02-20T06:16:18.813Z,20.00
2019-02-20T06:17:18.805Z,24.00
2019-02-20T06:18:18.801Z,28.00
2019-02-20T06:19:18.786Z,32.00
2019-02-20T06:20:18.800Z,32.00
2019-02-20T06:21:18.760Z,40.00
2019-02-20T06:22:18.747Z,44.00
2019-02-20T06:23:18.759Z,48.00
2019-02-20T06:24:18.735Z,56.00
2019-02-20T06:25:18.713Z,64.00
2019-02-20T06:26:18.718Z,72.00
2019-02-20T06:27:18.689Z,80.00
2019-02-20T06:28:18.680Z,92.00
2019-02-20T06:29:18.676Z,100.00
2019-02-20T06:30:18.681Z,104.00
2019-02-20T06:31:18.647Z,116.00
2019-02-20T06:32:18.664Z,124.00
2019-02-20T06:33:18.637Z,132.00
2019-02-20T06:34:18.622Z,144.00
2019-02-20T06:35:18.617Z,160.00
2019-02-20T06:36:18.595Z,172.00
2019-02-20T06:37:18.608Z,188.00
2019-02-20T06:38:18.569Z,204.00
2019-02-20T06:39:18.583Z,220.00
2019-02-20T06:40:18.546Z,240.00
2019-02-20T06:41:18.564Z,256.00
2019-02-20T06:42:18.526Z,276.00
2019-02-20T06:43:18.515Z,292.00
2019-02-20T06:44:18.535Z,312.00
2019-02-20T06:45:18.502Z,324.00
2019-02-20T06:46:18.480Z,340.00
2019-02-20T06:47:18.497Z,356.00
2019-02-20T06:48:18.540Z,364.00
2019-02-20T06:49:18.454Z,376.00
2019-02-20T06:50:18.444Z,388.00
2019-02-20T06:51:18.458Z,392.00
2019-02-20T06:52:18.414Z,408.00
2019-02-20T06:53:18.427Z,416.00
2019-02-20T06:54:18.395Z,424.00
2019-02-20T06:55:18.424Z,432.00
2019-02-20T06:56:18.395Z,436.00
2019-02-20T06:57:18.362Z,440.00
2019-02-20T06:58:18.346Z,440.00
2019-02-20T06:59:18.339Z,448.00
2019-02-20T07:00:18.329Z,452.00
2019-02-20T07:01:18.392Z,460.00
2019-02-20T07:02:18.307Z,468.00
2019-02-20T07:03:18.303Z,476.00
2019-02-20T07:04:18.281Z,492.00
2019-02-20T07:05:18.294Z,516.00
2019-02-20T07:06:18.296Z,540.00
2019-02-20T07:07:18.250Z,568.00
2019-02-20T07:08:18.238Z,596.00
2019-02-20T07:09:18.227Z,632.00
2019-02-20T07:10:18.219Z,668.00
2019-02-20T07:11:18.239Z,708.00
2019-02-20T07:12:18.227Z,748.00
2019-02-20T07:13:18.193Z,792.00
2019-02-20T07:14:18.177Z,832.00
2019-02-20T07:15:18.167Z,876.00
2019-02-20T07:16:20.042Z,912.00
2019-02-20T07:17:18.146Z,956.00
2019-02-20T07:18:18.172Z,988.00
2019-02-20T07:19:18.123Z,1024.00
2019-02-20T07:20:18.107Z,1056.00
2019-02-20T07:21:18.123Z,1088.00
2019-02-20T07:22:18.085Z,1120.00
2019-02-20T07:23:18.075Z,1144.00
2019-02-20T07:24:18.073Z,1164.00
2019-02-20T07:25:18.053Z,1180.00
2019-02-20T07:26:18.080Z,1204.00
2019-02-20T07:27:18.030Z,1212.00
2019-02-20T07:28:18.023Z,1228.00
2019-02-20T07:29:18.004Z,1236.00
2019-02-20T07:30:18.018Z,1244.00
2019-02-20T07:31:18.056Z,1252.00
2019-02-20T07:32:17.974Z,1260.00
2019-02-20T07:33:17.960Z,1268.00
2019-02-20T07:34:17.948Z,1272.00
2019-02-20T07:35:17.945Z,1284.00
2019-02-20T07:36:17.951Z,1304.00
2019-02-20T07:37:17.926Z,1332.00
2019-02-20T07:38:17.919Z,1368.00
2019-02-20T07:39:17.917Z,1404.00
2019-02-20T07:40:17.903Z,1440.00
2019-02-20T07:41:17.872Z,1464.00
2019-02-20T07:42:17.859Z,1492.00
2019-02-20T07:43:17.886Z,1508.00
2019-02-20T07:44:17.839Z,1520.00
2019-02-20T07:45:17.830Z,1532.00
2019-02-20T07:46:17.819Z,1544.00
2019-02-20T07:47:17.809Z,1544.00
2019-02-20T07:48:17.821Z,1544.00
2019-02-20T07:49:17.788Z,1540.00
2019-02-20T07:50:17.777Z,1536.00
2019-02-20T07:51:17.763Z,1536.00
2019-02-20T07:52:17.760Z,1528.00
2019-02-20T07:53:17.790Z,1516.00
2019-02-20T07:54:17.738Z,1508.00
2019-02-20T07:55:17.743Z,1504.00
2019-02-20T07:56:17.706Z,1504.00
2019-02-20T07:57:17.700Z,1512.00
2019-02-20T07:58:17.710Z,1524.00
2019-02-20T07:59:17.678Z,1540.00
2019-02-20T08:00:17.674Z,1560.00
2019-02-20T08:01:17.708Z,1584.00
2019-02-20T08:02:17.644Z,1612.00
2019-02-20T08:03:17.658Z,1640.00
2019-02-20T08:04:17.620Z,1668.00
2019-02-20T08:05:17.614Z,1696.00
2019-02-20T08:06:17.600Z,1732.00
2019-02-20T08:07:17.590Z,1764.00
2019-02-20T08:08:17.624Z,1804.00
2019-02-20T08:09:17.584Z,1840.00
2019-02-20T08:10:17.580Z,1868.00
2019-02-20T08:11:17.540Z,1892.00
2019-02-20T08:12:17.530Z,1924.00
2019-02-20T08:13:17.522Z,1956.00
2019-02-20T08:14:17.531Z,1988.00
2019-02-20T08:15:17.525Z,2016.00
2019-02-20T08:16:17.490Z,2036.00
2019-02-20T08:17:17.486Z,2068.00
2019-02-20T08:18:17.493Z,2088.00
2019-02-20T08:19:17.462Z,2120.00
2019-02-20T08:20:17.444Z,2152.00
2019-02-20T08:21:17.455Z,2192.00
2019-02-20T08:22:17.513Z,2232.00
2019-02-20T08:23:17.407Z,2272.00
2019-02-20T08:24:17.420Z,2316.00
2019-02-20T08:25:22.976Z,2356.00
2019-02-20T08:26:18.373Z,2400.00
2019-02-20T08:27:17.392Z,2440.00
2019-02-20T08:28:17.426Z,2476.00
2019-02-20T08:29:17.361Z,2512.00
2019-02-20T08:30:17.361Z,2548.00
2019-02-20T08:31:17.330Z,2584.00
2019-02-20T08:32:17.311Z,2628.00
2019-02-20T08:33:17.298Z,2684.00
2019-02-20T08:34:17.290Z,2716.00
2019-02-20T08:35:17.305Z,2744.00
2019-02-20T08:36:17.295Z,2776.00
2019-02-20T08:37:17.265Z,2800.00
2019-02-20T08:38:17.264Z,2816.00
2019-02-20T08:39:17.231Z,2836.00
2019-02-20T08:40:17.229Z,2868.00
2019-02-20T08:41:17.234Z,2888.00
2019-02-20T08:42:17.203Z,2900.00
2019-02-20T08:43:17.192Z,2932.00
2019-02-20T08:44:17.178Z,2968.00
2019-02-20T08:45:17.167Z,3020.00
2019-02-20T08:46:17.178Z,3088.00
2019-02-20T08:47:17.173Z,3132.00
2019-02-20T08:48:17.131Z,3188.00
2019-02-20T08:49:17.126Z,3196.00
2019-02-20T08:50:17.145Z,3220.00
2019-02-20T08:51:17.129Z,3276.00
2019-02-20T08:52:17.090Z,3348.00
2019-02-20T08:53:17.084Z,3412.00
2019-02-20T08:54:17.069Z,3456.00
2019-02-20T08:55:18.835Z,3492.00
2019-02-20T08:56:17.088Z,3512.00
2019-02-20T08:57:17.034Z,3508.00
2019-02-20T08:58:17.025Z,3532.00
2019-02-20T08:59:17.010Z,3552.00
2019-02-20T09:00:17.006Z,3568.00
2019-02-20T09:01:17.018Z,3584.00
2019-02-20T09:02:16.981Z,3592.00
2019-02-20T09:03:16.966Z,3584.00
2019-02-20T09:04:16.959Z,3588.00
2019-02-20T09:05:16.973Z,3512.00
2019-02-20T09:06:16.932Z,3460.00
2019-02-20T09:07:16.946Z,3428.00
2019-02-20T09:08:16.913Z,3420.00
2019-02-20T09:09:16.930Z,3408.00
2019-02-20T09:10:17.489Z,3416.00
2019-02-20T09:11:16.886Z,3500.00
2019-02-20T09:12:16.901Z,3644.00
2019-02-20T09:13:16.852Z,3696.00
2019-02-20T09:14:16.857Z,3668.00
2019-02-20T09:15:16.838Z,3656.00
2019-02-20T09:16:16.821Z,3704.00
2019-02-20T09:17:16.838Z,3780.00
2019-02-20T09:18:16.803Z,3856.00
2019-02-20T09:19:16.810Z,3952.00
2019-02-20T09:20:16.781Z,4072.00
2019-02-20T09:21:16.779Z,4184.00
2019-02-20T09:22:16.756Z,4256.00
2019-02-20T09:23:16.744Z,4360.00
2019-02-20T09:24:16.744Z,4536.00
2019-02-20T09:25:19.828Z,4632.00
2019-02-20T09:26:16.709Z,4752.00
2019-02-20T09:27:16.698Z,4748.00
2019-02-20T09:28:16.687Z,4864.00
2019-02-20T09:29:16.676Z,4916.00
2019-02-20T09:30:16.688Z,4868.00
2019-02-20T09:31:16.677Z,4736.00
2019-02-20T09:32:16.664Z,4832.00
2019-02-20T09:33:16.648Z,4816.00
2019-02-20T09:34:16.633Z,4852.00
2019-02-20T09:35:16.638Z,4920.00
2019-02-20T09:36:16.638Z,4844.00
2019-02-20T09:37:16.585Z,4880.00
2019-02-20T09:38:16.579Z,5040.00
2019-02-20T09:39:16.568Z,5260.00
2019-02-20T09:40:16.552Z,5228.00
2019-02-20T09:41:16.562Z,5448.00
2019-02-20T09:42:16.555Z,5388.00
2019-02-20T09:43:16.528Z,5636.00
2019-02-20T09:44:16.508Z,4892.00
2019-02-20T09:45:16.498Z,5024.00
2019-02-20T09:46:16.487Z,5112.00
2019-02-20T09:47:16.496Z,5084.00
2019-02-20T09:48:16.470Z,4980.00
2019-02-20T09:49:16.467Z,4932.00
2019-02-20T09:50:16.444Z,4948.00
2019-02-20T09:51:16.453Z,4796.00
2019-02-20T09:52:16.443Z,4724.00
2019-02-20T09:53:16.411Z,4748.00
2019-02-20T09:54:16.397Z,4780.00
2019-02-20T09:55:16.393Z,4848.00
2019-02-20T09:56:16.387Z,4904.00
2019-02-20T09:57:16.361Z,4872.00
2019-02-20T09:58:16.383Z,4892.00
2019-02-20T09:59:16.346Z,4932.00
2019-02-20T10:00:16.347Z,5004.00
2019-02-20T10:01:16.350Z,5036.00
2019-02-20T10:02:16.322Z,5256.00
2019-02-20T10:03:16.306Z,5304.00
2019-02-20T10:04:16.314Z,5340.00
2019-02-20T10:05:16.308Z,5568.00
2019-02-20T10:06:16.268Z,5636.00
2019-02-20T10:07:16.254Z,5636.00
2019-02-20T10:08:16.278Z,5308.00
2019-02-20T10:09:16.397Z,5164.00
2019-02-20T10:10:16.241Z,5008.00
2019-02-20T10:11:16.212Z,4760.00
2019-02-20T10:12:16.200Z,4544.00
2019-02-20T10:13:16.189Z,4328.00
2019-02-20T10:14:16.178Z,4164.00
2019-02-20T10:15:16.209Z,4036.00
2019-02-20T10:16:16.156Z,4032.00
2019-02-20T10:17:16.142Z,4072.00
2019-02-20T10:18:16.133Z,3972.00
2019-02-20T10:19:16.167Z,4032.00
2019-02-20T10:20:16.111Z,4192.00
2019-02-20T10:21:17.265Z,4436.00
2019-02-20T10:22:16.087Z,4872.00
2019-02-20T10:23:16.078Z,5832.00
2019-02-20T10:24:16.082Z,6060.00
2019-02-20T10:25:16.057Z,5792.00
2019-02-20T10:26:16.070Z,5372.00
2019-02-20T10:27:16.043Z,5508.00
2019-02-20T10:28:16.030Z,5036.00
2019-02-20T10:29:16.015Z,4856.00
2019-02-20T10:30:16.026Z,5016.00
2019-02-20T10:31:15.984Z,5400.00
2019-02-20T10:32:15.983Z,5240.00
2019-02-20T10:33:15.973Z,4684.00
2019-02-20T10:34:15.976Z,4792.00
2019-02-20T10:35:15.957Z,4864.00
2019-02-20T10:36:15.954Z,4988.00
2019-02-20T10:37:15.922Z,5416.00
2019-02-20T10:38:15.930Z,5648.00
2019-02-20T10:39:15.902Z,5752.00
2019-02-20T10:40:15.885Z,5648.00
2019-02-20T10:41:15.887Z,5888.00
2019-02-20T10:42:17.414Z,5976.00
2019-02-20T10:43:15.881Z,5564.00
2019-02-20T10:44:15.843Z,5428.00
2019-02-20T10:45:15.831Z,5076.00
2019-02-20T10:46:15.819Z,4836.00
2019-02-20T10:47:15.827Z,4680.00
2019-02-20T10:48:15.798Z,4560.00
2019-02-20T10:49:15.788Z,4508.00
2019-02-20T10:50:15.777Z,4504.00
2019-02-20T10:51:15.794Z,4556.00
2019-02-20T10:52:15.756Z,4612.00
2019-02-20T10:53:15.744Z,4744.00
2019-02-20T10:54:15.750Z,4876.00
2019-02-20T10:55:15.728Z,4908.00
2019-02-20T10:56:15.738Z,5088.00
2019-02-20T10:57:15.709Z,5236.00
2019-02-20T10:58:15.689Z,5140.00
2019-02-20T10:59:15.678Z,5124.00
2019-02-20T11:00:23.400Z,5032.00
2019-02-20T11:01:16.682Z,4936.00
2019-02-20T11:02:15.641Z,4912.00
2019-02-20T11:03:15.636Z,4908.00
2019-02-20T11:04:15.627Z,4924.00
2019-02-20T11:05:15.609Z,4936.00
2019-02-20T11:06:15.630Z,4912.00
2019-02-20T11:07:15.594Z,4856.00
2019-02-20T11:08:15.579Z,4816.00
2019-02-20T11:09:15.571Z,4760.00
2019-02-20T11:10:15.556Z,4720.00
2019-02-20T11:11:15.568Z,4708.00
2019-02-20T11:12:15.575Z,4716.00
2019-02-20T11:13:15.527Z,4744.00
2019-02-20T11:14:15.518Z,4772.00
2019-02-20T11:15:15.503Z,4800.00
2019-02-20T11:16:15.495Z,4840.00
2019-02-20T11:17:15.506Z,4840.00
2019-02-20T11:18:15.466Z,4844.00
2019-02-20T11:19:15.734Z,4780.00
2019-02-20T11:20:15.443Z,4732.00
2019-02-20T11:21:15.432Z,4732.00
2019-02-20T11:22:15.439Z,4772.00
2019-02-20T11:23:15.413Z,4816.00
2019-02-20T11:24:15.426Z,4828.00
2019-02-20T11:25:15.415Z,4840.00
2019-02-20T11:26:18.177Z,4888.00
2019-02-20T11:27:15.397Z,4928.00
2019-02-20T11:28:15.379Z,4932.00
2019-02-20T11:29:15.347Z,4972.00
2019-02-20T11:30:15.333Z,4996.00
2019-02-20T11:31:15.323Z,5072.00
2019-02-20T11:32:15.316Z,5112.00
2019-02-20T11:33:15.384Z,5056.00
2019-02-20T11:34:15.298Z,5072.00
2019-02-20T11:35:15.276Z,5060.00
2019-02-20T11:36:15.270Z,4916.00
2019-02-20T11:37:15.255Z,4820.00
2019-02-20T11:38:15.267Z,4740.00
2019-02-20T11:39:15.232Z,4612.00
2019-02-20T11:40:15.222Z,4548.00
2019-02-20T11:41:15.210Z,4516.00
2019-02-20T11:42:15.199Z,4488.00
2019-02-20T11:43:15.213Z,4456.00
2019-02-20T11:44:20.824Z,4416.00
2019-02-20T11:45:16.195Z,4356.00
2019-02-20T11:46:15.162Z,4296.00
2019-02-20T11:47:15.142Z,4256.00
2019-02-20T11:48:15.135Z,4196.00
2019-02-20T11:49:15.121Z,4136.00
2019-02-20T11:50:15.139Z,4072.00
2019-02-20T11:51:15.099Z,3972.00
2019-02-20T11:52:15.089Z,3864.00
2019-02-20T11:53:15.084Z,3780.00
2019-02-20T11:54:15.065Z,3716.00
2019-02-20T11:55:15.081Z,3768.00
2019-02-20T11:56:15.044Z,3880.00
2019-02-20T11:57:15.032Z,4004.00
2019-02-20T11:58:15.022Z,4088.00
2019-02-20T11:59:15.013Z,4124.00
2019-02-20T12:00:15.022Z,4140.00
2019-02-20T12:01:14.988Z,4180.00
2019-02-20T12:02:15.009Z,4232.00
2019-02-20T12:03:14.970Z,4296.00
2019-02-20T12:04:14.977Z,4360.00
2019-02-20T12:05:14.950Z,4436.00
2019-02-20T12:06:14.934Z,4496.00
2019-02-20T12:07:14.920Z,4488.00
2019-02-20T12:08:14.928Z,4488.00
2019-02-20T12:09:14.904Z,4448.00
2019-02-20T12:10:14.904Z,4352.00
2019-02-20T12:11:14.898Z,4260.00
2019-02-20T12:12:14.870Z,4264.00
2019-02-20T12:13:14.886Z,4292.00
2019-02-20T12:14:14.852Z,4344.00
2019-02-20T12:15:14.860Z,4376.00
2019-02-20T12:16:14.822Z,4332.00
2019-02-20T12:17:14.811Z,4280.00
2019-02-20T12:18:17.355Z,4224.00
2019-02-20T12:19:14.792Z,4152.00
2019-02-20T12:20:14.776Z,4040.00
2019-02-20T12:21:14.800Z,3952.00
2019-02-20T12:22:14.777Z,3904.00
2019-02-20T12:23:14.747Z,3912.00
2019-02-20T12:24:14.732Z,3884.00
2019-02-20T12:25:14.723Z,3820.00
2019-02-20T12:26:14.737Z,3704.00
2019-02-20T12:27:14.704Z,3584.00
2019-02-20T12:28:14.690Z,3508.00
2019-02-20T12:29:14.698Z,3492.00
2019-02-20T12:30:14.671Z,3468.00
2019-02-20T12:31:14.664Z,3416.00
2019-02-20T12:32:14.645Z,3276.00
2019-02-20T12:33:14.633Z,3108.00
2019-02-20T12:34:14.639Z,3008.00
2019-02-20T12:35:14.612Z,2960.00
2019-02-20T12:36:14.609Z,3012.00
2019-02-20T12:37:14.616Z,3220.00
2019-02-20T12:38:14.579Z,3492.00
2019-02-20T12:39:14.573Z,3696.00
2019-02-20T12:40:14.584Z,3864.00
2019-02-20T12:41:14.551Z,3968.00
2019-02-20T12:42:14.561Z,4040.00